Time;durP1;ratioP1;P1;durP2;ratioP2;P2;SDS_P1;SDS_P2;PMS_P1;PMS_P2;Temp;Humidity;BMP_temperature;BMP_pressure;BME280_temperature;BME280_humidity;BME280_pressure;Samples;Min_cycle;Max_cycle;Signal;HPM_P1;HPM_P2
2021/07/30 00:00:25;;;;;;;1.20;0.80;;;15.20;84.10;;;;;;5053687;28;20397;-78
2021/07/30 00:02:51;;;;;;;1.00;1.00;;;15.20;84.10;;;;;;5053219;28;20025;-78
2021/07/30 00:05:17;;;;;;;0.88;0.88;;;15.20;84.10;;;;;;5053598;28;20025;-78
2021/07/30 00:07:44;;;;;;;1.00;0.90;;;15.10;84.10;;;;;;5053564;28;20029;-78
2021/07/30 00:10:10;;;;;;;0.63;0.63;;;15.00;84.20;;;;;;5053612;28;20355;-78
2021/07/30 00:12:36;;;;;;;0.70;0.70;;;15.00;84.30;;;;;;5053601;28;20033;-78
2021/07/30 00:15:02;;;;;;;0.60;0.60;;;15.00;84.40;;;;;;5053520;28;20421;-78
2021/07/30 00:17:27;;;;;;;0.98;0.98;;;15.00;84.40;;;;;;5053031;28;20363;-78
2021/07/30 00:19:53;;;;;;;1.13;1.00;;;15.00;84.30;;;;;;5053229;28;20438;-78
2021/07/30 00:22:18;;;;;;;1.00;0.90;;;15.00;84.30;;;;;;5053466;28;20024;-78
2021/07/30 00:24:44;;;;;;;1.20;1.08;;;15.00;84.20;;;;;;5053316;28;20021;-78
2021/07/30 00:27:09;;;;;;;1.90;1.00;;;15.00;84.80;;;;;;5053335;28;20044;-78
2021/07/30 00:29:35;;;;;;;1.08;1.08;;;15.00;84.20;;;;;;5053274;28;20028;-78
2021/07/30 00:32:00;;;;;;;1.30;1.10;;;15.00;84.20;;;;;;5052900;28;20031;-78
2021/07/30 00:34:26;;;;;;;0.93;0.93;;;14.90;84.10;;;;;;5053185;28;20086;-78
2021/07/30 00:36:51;;;;;;;0.77;0.73;;;15.00;84.10;;;;;;5053158;28;20021;-78
2021/07/30 00:39:17;;;;;;;1.10;1.00;;;14.90;84.10;;;;;;5035169;28;20489;-78
2021/07/30 00:41:42;;;;;;;0.90;0.70;;;14.90;84.20;;;;;;5053188;28;20036;-78
2021/07/30 00:44:08;;;;;;;1.23;1.05;;;14.90;84.20;;;;;;5053261;28;20017;-78
2021/07/30 00:46:35;;;;;;;0.77;0.77;;;14.90;84.20;;;;;;5052476;28;20543;-78
2021/07/30 00:49:01;;;;;;;0.93;0.75;;;14.90;84.20;;;;;;5035199;28;20032;-78
2021/07/30 00:51:27;;;;;;;0.90;0.70;;;14.80;84.20;;;;;;5052970;28;20071;-78
2021/07/30 00:53:54;;;;;;;0.82;0.82;;;14.80;84.80;;;;;;5052853;28;20047;-78
2021/07/30 00:56:20;;;;;;;0.93;0.90;;;14.80;84.20;;;;;;5035129;28;20021;-78
2021/07/30 00:58:47;;;;;;;0.63;0.63;;;14.70;84.20;;;;;;5055499;28;20029;-78
2021/07/30 01:01:13;;;;;;;0.82;0.70;;;14.70;84.20;;;;;;5056876;28;20025;-78
2021/07/30 01:03:39;;;;;;;0.68;0.68;;;14.70;84.20;;;;;;5057117;28;20021;-78
2021/07/30 01:06:05;;;;;;;0.70;0.70;;;14.70;84.20;;;;;;5057170;28;20024;-78
2021/07/30 01:08:31;;;;;;;0.60;0.60;;;14.70;84.50;;;;;;5057018;28;20021;-78
2021/07/30 01:10:56;;;;;;;0.73;0.73;;;14.70;84.20;;;;;;5056846;28;20036;-77
2021/07/30 01:13:22;;;;;;;0.65;0.65;;;14.60;84.20;;;;;;5057008;28;20028;-78
2021/07/30 01:15:47;;;;;;;1.23;0.98;;;14.60;84.20;;;;;;5056418;28;20521;-78
2021/07/30 01:18:13;;;;;;;1.42;0.90;;;14.60;84.20;;;;;;5056764;28;20041;-78
2021/07/30 01:20:42;;;;;;;1.17;1.08;;;14.60;84.20;;;;;;5056741;28;20049;-78
2021/07/30 01:23:10;;;;;;;1.00;0.93;;;14.60;84.30;;;;;;5056778;28;20025;-77
2021/07/30 01:25:35;;;;;;;1.02;1.00;;;14.50;84.40;;;;;;5038785;28;20055;-77
2021/07/30 01:28:01;;;;;;;1.17;1.10;;;14.40;84.40;;;;;;5056616;28;20025;-77
2021/07/30 01:30:27;;;;;;;2.30;0.98;;;14.40;84.50;;;;;;5038396;28;20017;-77
2021/07/30 01:32:53;;;;;;;1.20;1.10;;;14.40;84.40;;;;;;5056676;28;20359;-77
2021/07/30 01:35:18;;;;;;;0.75;0.75;;;14.50;84.50;;;;;;5056584;28;20519;-78
2021/07/30 01:37:44;;;;;;;0.50;0.50;;;14.40;84.40;;;;;;5056513;28;20020;-78
2021/07/30 01:40:10;;;;;;;0.70;0.70;;;14.40;84.50;;;;;;5056480;28;20486;-77
2021/07/30 01:42:36;;;;;;;0.98;0.80;;;14.40;84.50;;;;;;5056324;28;20030;-77
2021/07/30 01:45:04;;;;;;;0.70;0.70;;;14.40;84.50;;;;;;5055883;28;20108;-78
2021/07/30 01:47:31;;;;;;;1.30;1.17;;;14.40;84.50;;;;;;5056350;28;20104;-77
2021/07/30 01:49:56;;;;;;;1.45;1.00;;;14.30;84.60;;;;;;5056367;28;20438;-78
2021/07/30 01:52:22;;;;;;;0.70;0.68;;;14.30;84.60;;;;;;5056341;28;20051;-77
2021/07/30 01:54:47;;;;;;;1.25;1.13;;;14.30;84.70;;;;;;5038180;28;20055;-78
2021/07/30 01:57:13;;;;;;;0.60;0.57;;;14.20;84.60;;;;;;5055960;28;20382;-78
2021/07/30 01:59:41;;;;;;;0.40;0.40;;;14.20;84.70;;;;;;5055676;28;20059;-77
2021/07/30 02:02:07;;;;;;;1.73;0.93;;;14.20;84.70;;;;;;5055942;28;20104;-78
2021/07/30 02:04:33;;;;;;;0.98;0.90;;;14.20;84.70;;;;;;5055968;28;20067;-78
2021/07/30 02:06:58;;;;;;;1.05;0.55;;;14.20;84.80;;;;;;5037989;28;20466;-78
2021/07/30 02:09:24;;;;;;;0.60;0.60;;;14.10;84.70;;;;;;5036818;28;20074;-78
2021/07/30 02:11:53;;;;;;;0.85;0.70;;;14.10;84.80;;;;;;5055928;28;20031;-77
2021/07/30 02:14:20;;;;;;;;;;;14.10;84.80;;;;;;5055717;28;20026;-77
2021/07/30 02:16:48;;;;;;;0.90;0.90;;;14.10;84.80;;;;;;5055709;28;19944;-77
2021/07/30 02:19:16;;;;;;;1.83;1.67;;;14.00;85.00;;;;;;5055661;28;20120;-77
2021/07/30 02:21:42;;;;;;;13.60;11.00;;;14.00;85.00;;;;;;5055697;28;20013;-78
2021/07/30 02:24:08;;;;;;;11.35;7.95;;;14.00;85.10;;;;;;5055506;28;20062;-78
2021/07/30 02:26:33;;;;;;;15.00;12.43;;;14.00;85.00;;;;;;5055698;28;20021;-78
2021/07/30 02:28:59;;;;;;;14.57;9.95;;;14.00;85.10;;;;;;5054994;28;20033;-77
2021/07/30 02:31:25;;;;;;;20.27;12.85;;;13.90;85.10;;;;;;5055591;28;20017;-78
2021/07/30 02:33:51;;;;;;;15.90;10.90;;;13.90;85.10;;;;;;5055559;28;20029;-78
2021/07/30 02:36:16;;;;;;;15.55;11.25;;;13.90;85.80;;;;;;5055266;28;20021;-77
2021/07/30 02:38:42;;;;;;;11.30;6.53;;;13.90;85.20;;;;;;5055220;28;20029;-77
2021/07/30 02:41:07;;;;;;;11.13;6.05;;;13.90;85.20;;;;;;5055229;28;20492;-77
2021/07/30 02:43:34;;;;;;;8.27;5.75;;;13.90;85.20;;;;;;5054872;28;20490;-77
2021/07/30 02:46:00;;;;;;;10.70;6.93;;;13.90;85.20;;;;;;5055123;28;20067;-78
2021/07/30 02:48:25;;;;;;;9.18;6.47;;;13.90;85.20;;;;;;5055169;28;20425;-78
2021/07/30 02:50:51;;;;;;;5.75;4.25;;;13.80;85.20;;;;;;5055244;28;20033;-77
2021/07/30 02:53:16;;;;;;;6.25;3.67;;;13.80;85.20;;;;;;5054783;28;20071;-78
2021/07/30 02:55:42;;;;;;;4.20;2.70;;;13.80;85.30;;;;;;5055027;28;20021;-78
2021/07/30 02:58:07;;;;;;;3.33;1.90;;;13.80;85.30;;;;;;5054449;28;20032;-78
2021/07/30 03:00:35;;;;;;;2.42;1.80;;;13.80;85.30;;;;;;5055115;28;20493;-77
2021/07/30 03:03:00;;;;;;;2.70;1.65;;;13.80;85.20;;;;;;5054964;28;20108;-78
2021/07/30 03:05:26;;;;;;;2.33;1.70;;;13.80;85.10;;;;;;5054979;28;20099;-78
2021/07/30 03:07:51;;;;;;;2.33;1.33;;;13.90;85.10;;;;;;5054725;28;20013;-78
2021/07/30 03:10:17;;;;;;;2.03;1.35;;;13.90;85.10;;;;;;5054751;28;20409;-78
2021/07/30 03:12:42;;;;;;;2.60;1.35;;;13.80;85.00;;;;;;5036447;28;20074;-78
2021/07/30 03:15:08;;;;;;;1.60;1.23;;;13.90;85.10;;;;;;5036870;28;20143;-78
2021/07/30 03:17:34;;;;;;;1.15;1.05;;;13.90;85.20;;;;;;5054480;28;20043;-78
2021/07/30 03:19:59;;;;;;;1.35;1.25;;;13.90;85.30;;;;;;5054456;28;20470;-78
2021/07/30 03:22:25;;;;;;;1.58;1.48;;;13.90;85.40;;;;;;5054221;28;20025;-78
2021/07/30 03:24:50;;;;;;;1.55;1.45;;;13.90;85.40;;;;;;5054009;28;20036;-78
2021/07/30 03:27:16;;;;;;;0.82;0.82;;;13.80;85.40;;;;;;5054317;28;20075;-78
2021/07/30 03:29:41;;;;;;;1.77;1.30;;;13.80;85.40;;;;;;5054368;28;20025;-78
2021/07/30 03:32:08;;;;;;;1.13;1.00;;;13.80;85.50;;;;;;5054291;28;20047;-78
2021/07/30 03:34:34;;;;;;;1.25;0.90;;;13.80;85.60;;;;;;5054261;28;20136;-78
2021/07/30 03:37:00;;;;;;;2.28;1.00;;;13.80;85.70;;;;;;5054238;28;20385;-78
2021/07/30 03:39:27;;;;;;;0.65;0.65;;;13.80;85.60;;;;;;5053540;28;20494;-78
2021/07/30 03:41:52;;;;;;;0.90;0.90;;;13.70;85.60;;;;;;5054111;28;20087;-78
2021/07/30 03:44:18;;;;;;;1.95;1.17;;;13.70;85.60;;;;;;5054258;28;20537;-79
2021/07/30 03:46:43;;;;;;;0.60;0.60;;;13.70;85.50;;;;;;5054138;28;20033;-78
2021/07/30 03:49:09;;;;;;;1.02;0.90;;;13.70;85.60;;;;;;5054019;28;20021;-77
2021/07/30 03:51:34;;;;;;;0.95;0.95;;;13.70;85.60;;;;;;5054025;28;20070;-77
2021/07/30 03:54:00;;;;;;;1.02;0.80;;;13.70;85.60;;;;;;5053369;28;20041;-77
2021/07/30 03:56:26;;;;;;;0.82;0.82;;;13.70;85.60;;;;;;5053792;28;20024;-77
2021/07/30 03:58:51;;;;;;;2.17;1.23;;;13.80;86.20;;;;;;5053757;28;20493;-78
2021/07/30 04:01:17;;;;;;;1.00;0.75;;;13.80;85.50;;;;;;5053819;28;20025;-78
2021/07/30 04:03:44;;;;;;;0.63;0.60;;;13.80;85.40;;;;;;5053803;28;20072;-78
2021/07/30 04:06:10;;;;;;;1.55;1.00;;;13.80;85.40;;;;;;5053792;28;20047;-78
2021/07/30 04:08:35;;;;;;;1.77;1.42;;;13.90;85.40;;;;;;5053205;28;20025;-77
2021/07/30 04:11:02;;;;;;;1.67;1.02;;;13.90;85.30;;;;;;5053584;28;20103;-78
2021/07/30 04:13:28;;;;;;;1.63;1.10;;;14.00;85.20;;;;;;5053472;28;20028;-78
2021/07/30 04:15:54;;;;;;;2.40;0.93;;;14.00;85.20;;;;;;5053585;28;20025;-78
2021/07/30 04:18:19;;;;;;;2.30;1.05;;;14.00;85.20;;;;;;5053449;28;20060;-79
2021/07/30 04:20:45;;;;;;;1.60;1.30;;;14.10;85.20;;;;;;5053543;28;20103;-79
2021/07/30 04:23:12;;;;;;;1.40;1.30;;;14.10;85.10;;;;;;5052954;28;20104;-79
2021/07/30 04:25:41;;;;;;;1.98;1.10;;;14.20;85.10;;;;;;5053354;28;20056;-79
2021/07/30 04:28:06;;;;;;;1.63;1.40;;;14.20;85.10;;;;;;5053318;28;20029;-79
2021/07/30 04:30:32;;;;;;;0.98;0.88;;;14.20;85.00;;;;;;5053287;28;20024;-79
2021/07/30 04:32:57;;;;;;;1.38;1.00;;;14.30;85.10;;;;;;5052625;28;20385;-79
2021/07/30 04:35:23;;;;;;;1.63;0.90;;;14.30;85.00;;;;;;5053508;28;20025;-79
2021/07/30 04:37:49;;;;;;;1.08;0.90;;;14.30;85.00;;;;;;5052567;28;20033;-79
2021/07/30 04:40:14;;;;;;;1.17;1.08;;;14.30;85.00;;;;;;5053218;28;20100;-79
2021/07/30 04:42:40;;;;;;;1.45;1.15;;;14.40;85.00;;;;;;5035209;28;20484;-78
2021/07/30 04:45:06;;;;;;;1.48;1.10;;;14.40;85.00;;;;;;5053223;28;20024;-79
2021/07/30 04:47:32;;;;;;;0.70;0.63;;;14.40;85.00;;;;;;5053106;28;20031;-79
2021/07/30 04:49:57;;;;;;;2.00;1.33;;;14.40;85.00;;;;;;5035384;28;20013;-79
2021/07/30 04:52:23;;;;;;;0.88;0.88;;;14.50;85.00;;;;;;5034406;28;20516;-78
2021/07/30 04:54:48;;;;;;;0.80;0.80;;;14.50;85.00;;;;;;5053078;28;20045;-79
2021/07/30 04:57:14;;;;;;;1.10;0.98;;;14.60;85.00;;;;;;5035182;28;20032;-79
2021/07/30 04:59:39;;;;;;;1.70;1.23;;;14.60;84.90;;;;;;5052755;28;20454;-79
2021/07/30 05:02:09;;;;;;;0.63;0.63;;;14.70;84.90;;;;;;5052970;28;20032;-79
2021/07/30 05:04:35;;;;;;;;;;;14.70;84.80;;;;;;5053342;28;20021;-78
2021/07/30 05:07:00;;;;;;;1.00;0.90;;;14.70;84.80;;;;;;5052529;28;19905;-78
2021/07/30 05:09:26;;;;;;;1.08;0.93;;;14.80;84.80;;;;;;5052913;28;20029;-79
2021/07/30 05:11:51;;;;;;;1.30;0.90;;;14.90;84.80;;;;;;5052732;28;20032;-78
2021/07/30 05:14:17;;;;;;;1.35;0.93;;;14.90;84.60;;;;;;5053008;28;20029;-79
2021/07/30 05:16:42;;;;;;;1.10;0.90;;;15.00;84.60;;;;;;5052836;28;20528;-79
2021/07/30 05:19:08;;;;;;;1.17;1.17;;;15.00;84.40;;;;;;5052786;28;20513;-79
2021/07/30 05:21:33;;;;;;;1.00;0.90;;;15.00;84.50;;;;;;5052456;28;20029;-79
2021/07/30 05:23:59;;;;;;;0.68;0.68;;;15.10;84.60;;;;;;5052552;28;20047;-79
2021/07/30 05:26:24;;;;;;;2.05;0.90;;;15.10;84.70;;;;;;5052826;28;20377;-79
2021/07/30 05:28:50;;;;;;;1.52;1.15;;;15.10;84.70;;;;;;5034921;28;20435;-78
2021/07/30 05:31:17;;;;;;;1.00;0.68;;;15.10;84.80;;;;;;5034942;28;20047;-78
2021/07/30 05:33:43;;;;;;;0.65;0.57;;;15.10;84.80;;;;;;5034908;28;20025;-78
2021/07/30 05:36:14;;;;;;;1.02;0.93;;;15.20;84.90;;;;;;5052158;28;20013;-78
2021/07/30 05:38:39;;;;;;;0.80;0.68;;;15.20;84.90;;;;;;5052540;28;20068;-78
2021/07/30 05:41:05;;;;;;;0.70;0.60;;;15.30;84.90;;;;;;5052605;28;20056;-78
2021/07/30 05:43:32;;;;;;;0.95;0.85;;;15.30;84.70;;;;;;5053085;28;20425;-79
2021/07/30 05:45:58;;;;;;;0.80;0.80;;;15.40;84.60;;;;;;5038442;28;20443;-79
2021/07/30 05:48:24;;;;;;;0.70;0.70;;;15.50;84.60;;;;;;5056339;28;20060;-79
2021/07/30 05:50:50;;;;;;;1.38;1.00;;;15.60;84.50;;;;;;5055839;28;20477;-78
2021/07/30 05:53:15;;;;;;;0.90;0.90;;;15.70;84.40;;;;;;5034855;28;20057;-79
2021/07/30 05:55:41;;;;;;;1.50;0.80;;;15.80;84.40;;;;;;5036278;28;20053;-79
2021/07/30 05:58:06;;;;;;;0.73;0.73;;;15.80;84.30;;;;;;5036152;28;20042;-78
2021/07/30 06:00:32;;;;;;;2.35;1.40;;;15.90;84.30;;;;;;5036162;28;20387;-79
2021/07/30 06:02:57;;;;;;;0.93;0.88;;;16.00;84.30;;;;;;5036104;28;20026;-79
2021/07/30 06:05:23;;;;;;;0.98;0.98;;;16.00;84.30;;;;;;5035659;28;20028;-79
2021/07/30 06:07:48;;;;;;;1.77;1.20;;;16.10;84.30;;;;;;5036168;28;20524;-79
2021/07/30 06:10:14;;;;;;;0.90;0.70;;;16.20;84.30;;;;;;5035947;28;20470;-79
2021/07/30 06:12:40;;;;;;;0.90;0.80;;;16.30;84.20;;;;;;5035936;28;20033;-79
2021/07/30 06:15:06;;;;;;;0.85;0.80;;;16.50;84.10;;;;;;5035932;28;20021;-79
2021/07/30 06:17:31;;;;;;;0.90;0.80;;;16.60;84.00;;;;;;5035691;28;20055;-79
2021/07/30 06:19:57;;;;;;;1.42;1.08;;;16.70;83.90;;;;;;5035335;28;20402;-79
2021/07/30 06:22:22;;;;;;;0.80;0.80;;;16.80;83.90;;;;;;5035837;28;20033;-79
2021/07/30 06:24:48;;;;;;;0.70;0.70;;;16.80;84.50;;;;;;5034641;28;20139;-78
2021/07/30 06:27:15;;;;;;;0.80;0.73;;;16.80;83.90;;;;;;5035648;28;20032;-78
2021/07/30 06:29:41;;;;;;;1.23;0.80;;;16.90;84.10;;;;;;5035803;28;20075;-79
2021/07/30 06:32:07;;;;;;;0.98;0.70;;;16.90;84.10;;;;;;5035625;28;20028;-79
2021/07/30 06:34:33;;;;;;;0.90;0.90;;;17.00;84.10;;;;;;5035392;28;20037;-78
2021/07/30 06:36:59;;;;;;;0.75;0.75;;;17.00;84.10;;;;;;5035535;28;20021;-79
2021/07/30 06:39:25;;;;;;;1.00;0.75;;;17.20;84.10;;;;;;5035372;28;20032;-79
2021/07/30 06:41:51;;;;;;;1.05;0.98;;;17.30;83.90;;;;;;5035549;28;20438;-79
2021/07/30 06:44:16;;;;;;;0.60;0.60;;;17.40;83.70;;;;;;5035266;28;20445;-78
2021/07/30 06:46:43;;;;;;;1.13;0.90;;;17.50;83.70;;;;;;5035357;28;20018;-78
2021/07/30 06:49:09;;;;;;;0.63;0.60;;;17.50;83.60;;;;;;5033720;28;20025;-79
2021/07/30 06:51:34;;;;;;;0.52;0.52;;;17.60;83.80;;;;;;5035264;28;20021;-79
2021/07/30 06:54:01;;;;;;;0.60;0.60;;;17.70;83.90;;;;;;5053547;28;20402;-79
2021/07/30 06:56:28;;;;;;;1.10;0.80;;;17.70;83.80;;;;;;5054382;28;20424;-78
2021/07/30 06:58:53;;;;;;;0.93;0.73;;;17.80;83.70;;;;;;5036998;28;20064;-79
2021/07/30 07:01:19;;;;;;;0.80;0.80;;;17.90;83.70;;;;;;5054989;28;20017;-78
2021/07/30 07:03:44;;;;;;;1.00;0.70;;;18.10;83.70;;;;;;5054493;28;20092;-79
2021/07/30 07:06:17;;;;;;;1.25;0.70;;;18.20;84.30;;;;;;5054768;28;20049;-79
2021/07/30 07:08:44;;;;;;;1.15;0.82;;;18.30;83.50;;;;;;5054884;28;20096;-79
2021/07/30 07:11:09;;;;;;;0.50;0.50;;;18.40;83.50;;;;;;5055011;28;20017;-79
2021/07/30 07:13:37;;;;;;;0.63;0.63;;;18.40;83.50;;;;;;5054698;28;20024;-79
2021/07/30 07:16:03;;;;;;;1.08;0.90;;;18.50;83.50;;;;;;5036759;28;20025;-79
2021/07/30 07:18:32;;;;;;;0.55;0.55;;;18.60;83.50;;;;;;5053858;28;20036;-78
2021/07/30 07:20:57;;;;;;;0.88;0.82;;;18.70;83.50;;;;;;5036645;28;20478;-79
2021/07/30 07:23:23;;;;;;;1.25;0.65;;;18.80;83.40;;;;;;5054486;28;20033;-79
2021/07/30 07:25:48;;;;;;;1.10;0.90;;;18.80;83.40;;;;;;5054572;28;20021;-79
2021/07/30 07:28:14;;;;;;;1.55;1.17;;;18.80;83.40;;;;;;5054378;28;20034;-79
2021/07/30 07:30:40;;;;;;;0.95;0.77;;;18.90;83.50;;;;;;5054278;28;20017;-79
2021/07/30 07:33:05;;;;;;;0.47;0.47;;;19.00;83.50;;;;;;5053972;28;20436;-79
2021/07/30 07:35:31;;;;;;;1.13;0.60;;;19.00;83.40;;;;;;5054206;28;20537;-79
2021/07/30 07:38:06;;;;;;;1.13;0.73;;;19.10;83.40;;;;;;5053946;28;20029;-79
2021/07/30 07:40:32;;;;;;;0.70;0.70;;;19.10;83.30;;;;;;5054249;28;20390;-79
2021/07/30 07:42:59;;;;;;;0.60;0.60;;;19.10;83.40;;;;;;5053962;28;20017;-79
2021/07/30 07:45:25;;;;;;;0.40;0.40;;;19.10;83.50;;;;;;5054060;28;20068;-79
2021/07/30 07:47:51;;;;;;;0.40;0.40;;;19.20;83.60;;;;;;5053496;28;20144;-79
2021/07/30 07:50:17;;;;;;;0.88;0.50;;;19.20;83.60;;;;;;5053923;28;20052;-80
2021/07/30 07:52:42;;;;;;;1.25;0.88;;;19.30;83.60;;;;;;5053662;28;20134;-80
2021/07/30 07:55:08;;;;;;;0.60;0.60;;;19.40;83.40;;;;;;5053993;28;20029;-79
2021/07/30 07:57:34;;;;;;;1.08;0.60;;;19.40;83.30;;;;;;5053962;28;20489;-79
2021/07/30 08:00:00;;;;;;;0.60;0.60;;;19.50;83.40;;;;;;5035915;28;20029;-79
2021/07/30 08:02:25;;;;;;;0.52;0.50;;;19.50;83.30;;;;;;5053234;28;20025;-79
2021/07/30 08:04:51;;;;;;;0.52;0.52;;;19.60;83.20;;;;;;5035921;28;20036;-78
2021/07/30 08:07:17;;;;;;;0.60;0.60;;;19.70;83.20;;;;;;5053721;28;20037;-79
2021/07/30 08:09:44;;;;;;;0.70;0.70;;;19.80;83.10;;;;;;5053750;28;20023;-78
2021/07/30 08:12:10;;;;;;;0.65;0.65;;;20.00;82.90;;;;;;5053587;28;20021;-78
2021/07/30 08:14:38;;;;;;;0.60;0.60;;;20.00;82.80;;;;;;5053562;28;20525;-79
2021/07/30 08:17:03;;;;;;;0.40;0.40;;;20.20;82.80;;;;;;5053011;28;20052;-79
2021/07/30 08:19:32;;;;;;;0.68;0.68;;;20.30;82.70;;;;;;5053479;28;20075;-78
2021/07/30 08:21:58;;;;;;;;;;;20.40;82.60;;;;;;5053813;28;20017;-78
2021/07/30 08:24:23;;;;;;;0.40;0.40;;;20.40;82.70;;;;;;5053366;28;19905;-79
2021/07/30 08:26:49;;;;;;;0.50;0.47;;;20.50;82.70;;;;;;5053415;28;20017;-78
2021/07/30 08:29:16;;;;;;;0.98;0.77;;;20.60;82.50;;;;;;5053418;28;20025;-78
2021/07/30 08:31:41;;;;;;;0.70;0.70;;;20.80;82.40;;;;;;5052647;28;20063;-79
2021/07/30 08:34:07;;;;;;;0.75;0.70;;;20.90;82.20;;;;;;5053328;28;20057;-78
2021/07/30 08:36:32;;;;;;;0.45;0.45;;;20.90;82.00;;;;;;5053178;28;20095;-79
2021/07/30 08:38:58;;;;;;;1.65;0.88;;;21.00;82.00;;;;;;5053136;28;20436;-79
2021/07/30 08:41:24;;;;;;;0.65;0.65;;;21.10;82.10;;;;;;5035171;28;20028;-79
2021/07/30 08:43:52;;;;;;;0.40;0.40;;;21.10;82.10;;;;;;5052707;28;20024;-78
2021/07/30 08:46:21;;;;;;;0.80;0.68;;;21.10;82.00;;;;;;5053059;28;20025;-79
2021/07/30 08:48:47;;;;;;;0.50;0.50;;;21.10;82.20;;;;;;5053174;28;20037;-79
2021/07/30 08:51:15;;;;;;;0.50;0.50;;;21.00;82.30;;;;;;5053308;28;20029;-79
2021/07/30 08:53:40;;;;;;;0.93;0.65;;;21.00;82.40;;;;;;5052764;28;20123;-78
2021/07/30 08:56:06;;;;;;;0.50;0.43;;;21.10;82.40;;;;;;5053075;28;20025;-78
2021/07/30 08:58:34;;;;;;;1.35;1.00;;;21.10;82.30;;;;;;5052245;28;20116;-79
2021/07/30 09:00:59;;;;;;;0.40;0.40;;;21.20;82.20;;;;;;5053270;28;20048;-79
2021/07/30 09:03:44;;;;;;;0.40;0.40;;;21.20;82.20;;;;;;5052977;28;20433;-78
2021/07/30 09:06:11;;;;;;;0.40;0.40;;;21.40;82.00;;;;;;5053179;28;20079;-78
2021/07/30 09:08:36;;;;;;;0.60;0.60;;;21.50;81.90;;;;;;5035109;28;20057;-79
2021/07/30 09:11:02;;;;;;;0.55;0.50;;;21.60;81.70;;;;;;5052941;28;20122;-78
2021/07/30 09:13:28;;;;;;;0.45;0.45;;;21.60;81.60;;;;;;5052459;28;20024;-78
2021/07/30 09:16:07;;;;;;;0.32;0.32;;;21.70;81.70;;;;;;5052707;28;20377;-78
2021/07/30 09:18:41;;;;;;;0.40;0.40;;;21.80;81.60;;;;;;5053151;28;20478;-78
2021/07/30 09:21:29;;;;;;;0.60;0.60;;;22.00;81.50;;;;;;5056817;28;20090;-78
2021/07/30 09:24:15;;;;;;;1.10;0.63;;;22.10;81.30;;;;;;5056831;28;20074;-78
2021/07/30 09:26:53;;;;;;;1.00;0.85;;;22.20;81.30;;;;;;5056747;28;20021;-79
2021/07/30 09:29:24;;;;;;;0.30;0.30;;;22.30;81.10;;;;;;5056313;28;20100;-78
2021/07/30 09:31:55;;;;;;;0.60;0.60;;;22.40;80.90;;;;;;5056473;28;20108;-78
2021/07/30 09:34:40;;;;;;;0.68;0.60;;;22.40;80.90;;;;;;5056583;28;20049;-78
2021/07/30 09:37:11;;;;;;;1.42;0.68;;;22.40;81.00;;;;;;5038811;28;20025;-78
2021/07/30 09:39:42;;;;;;;0.68;0.65;;;22.50;81.10;;;;;;5056284;28;20163;-78
2021/07/30 09:42:17;;;;;;;0.73;0.73;;;22.50;81.00;;;;;;5055972;28;20400;-78
2021/07/30 09:44:55;;;;;;;0.70;0.70;;;22.70;80.70;;;;;;5056468;28;20014;-79
2021/07/30 09:47:29;;;;;;;0.70;0.60;;;22.90;80.70;;;;;;5056650;28;20028;-79
2021/07/30 09:49:55;;;;;;;0.68;0.57;;;23.00;80.40;;;;;;5056171;28;20025;-79
2021/07/30 09:52:26;;;;;;;0.77;0.68;;;23.10;80.10;;;;;;5038200;28;20132;-79
2021/07/30 09:54:57;;;;;;;0.45;0.45;;;23.20;80.10;;;;;;5056274;28;20118;-78
2021/07/30 09:57:27;;;;;;;1.13;0.80;;;23.30;79.80;;;;;;5055725;28;20032;-78
2021/07/30 09:59:58;;;;;;;0.70;0.70;;;23.30;80.00;;;;;;5056160;28;20032;-79
2021/07/30 10:02:26;;;;;;;0.68;0.68;;;23.40;79.90;;;;;;5056055;28;20469;-79
2021/07/30 10:04:52;;;;;;;0.68;0.68;;;23.50;79.70;;;;;;5056109;28;20029;-78
2021/07/30 10:07:19;;;;;;;0.50;0.50;;;23.50;79.40;;;;;;5056003;28;20047;-78
2021/07/30 10:09:49;;;;;;;0.60;0.60;;;23.60;79.50;;;;;;5055867;28;20343;-79
2021/07/30 10:12:16;;;;;;;0.32;0.32;;;23.60;79.50;;;;;;5055479;28;20036;-78
2021/07/30 10:14:43;;;;;;;0.50;0.50;;;23.70;79.50;;;;;;5055899;28;20029;-78
2021/07/30 10:17:12;;;;;;;0.63;0.60;;;23.80;79.30;;;;;;5055934;28;20021;-78
2021/07/30 10:19:37;;;;;;;;;;;23.80;79.20;;;;;;5056272;28;20068;-79
2021/07/30 10:22:06;;;;;;;0.45;0.45;;;23.90;79.50;;;;;;5055654;28;19916;-79
2021/07/30 10:24:39;;;;;;;0.52;0.52;;;24.00;79.10;;;;;;5055646;28;20104;-79
2021/07/30 10:27:05;;;;;;;0.50;0.50;;;24.10;79.10;;;;;;5055271;28;20021;-79
2021/07/30 10:29:59;;;;;;;0.60;0.60;;;24.10;79.10;;;;;;5055494;28;20078;-79
2021/07/30 10:32:41;;;;;;;0.57;0.57;;;24.10;79.10;;;;;;5037187;28;20021;-79
2021/07/30 10:35:07;;;;;;;0.77;0.65;;;24.00;79.30;;;;;;5055479;28;20040;-79
2021/07/30 10:37:37;;;;;;;0.77;0.77;;;24.00;79.40;;;;;;5055332;28;20112;-78
2021/07/30 10:40:20;;;;;;;0.50;0.50;;;23.90;79.50;;;;;;5054862;28;20070;-78
2021/07/30 10:43:05;;;;;;;1.65;0.80;;;23.90;79.50;;;;;;5055320;28;20021;-79
2021/07/30 10:45:33;;;;;;;0.57;0.57;;;23.90;79.40;;;;;;5055234;28;20058;-78
2021/07/30 10:48:13;;;;;;;0.93;0.70;;;23.80;79.30;;;;;;5055087;28;20442;-77
2021/07/30 10:50:47;;;;;;;0.70;0.70;;;23.80;79.20;;;;;;5055163;28;20020;-78
2021/07/30 10:53:31;;;;;;;0.70;0.70;;;23.70;79.50;;;;;;5054963;28;20041;-77
2021/07/30 10:56:16;;;;;;;0.60;0.60;;;23.70;79.30;;;;;;5054617;28;20105;-78
2021/07/30 10:58:45;;;;;;;0.50;0.50;;;23.70;79.50;;;;;;5041111;28;20053;-79
2021/07/30 11:01:10;;;;;;;1.23;0.60;;;23.80;79.40;;;;;;5055023;28;20090;-79
2021/07/30 11:03:51;;;;;;;1.05;0.68;;;24.00;79.10;;;;;;5036897;28;20781;-79
2021/07/30 11:06:18;;;;;;;0.93;0.85;;;24.30;78.70;;;;;;5054825;28;20029;-78
2021/07/30 11:09:06;;;;;;;0.55;0.55;;;24.50;78.50;;;;;;5054914;28;20024;-78
2021/07/30 11:11:52;;;;;;;0.82;0.82;;;24.70;78.30;;;;;;5044307;28;20047;-79
2021/07/30 11:14:21;;;;;;;0.77;0.77;;;24.70;78.00;;;;;;5054799;28;20052;-79
2021/07/30 11:16:55;;;;;;;0.50;0.50;;;24.60;78.30;;;;;;5054882;28;20375;-78
2021/07/30 11:19:25;;;;;;;0.55;0.55;;;24.50;78.50;;;;;;5054503;28;20424;-79
2021/07/30 11:21:52;;;;;;;0.45;0.45;;;24.40;78.50;;;;;;5054546;28;20078;-78
2021/07/30 11:24:18;;;;;;;1.10;1.00;;;24.30;78.50;;;;;;5054061;28;20033;-78
2021/07/30 11:26:45;;;;;;;0.73;0.60;;;24.20;78.90;;;;;;5054536;28;20031;-79
2021/07/30 11:29:13;;;;;;;0.63;0.50;;;24.10;79.00;;;;;;5054453;28;20052;-79
2021/07/30 11:31:59;;;;;;;0.63;0.63;;;24.20;79.00;;;;;;5054380;28;20049;-79
2021/07/30 11:34:35;;;;;;;0.40;0.40;;;24.40;78.60;;;;;;5054488;28;20025;-79
2021/07/30 11:37:07;;;;;;;0.50;0.50;;;24.90;78.30;;;;;;5054129;28;20436;-79
2021/07/30 11:39:36;;;;;;;0.60;0.60;;;25.40;77.60;;;;;;5053830;28;20070;-79
2021/07/30 11:42:02;;;;;;;0.70;0.70;;;25.90;76.60;;;;;;5036043;28;20021;-79
2021/07/30 11:44:28;;;;;;;0.95;0.77;;;26.20;75.90;;;;;;5054020;28;20036;-78
2021/07/30 11:46:56;;;;;;;0.70;0.70;;;26.40;75.60;;;;;;5054138;28;20025;-78
2021/07/30 11:50:02;;;;;;;0.88;0.88;;;26.60;75.40;;;;;;5053911;28;20059;-79
2021/07/30 11:52:28;;;;;;;0.60;0.60;;;26.60;75.30;;;;;;5042480;28;20454;-79
2021/07/30 11:54:54;;;;;;;0.65;0.65;;;26.40;75.70;;;;;;5053903;28;20067;-80
2021/07/30 11:57:27;;;;;;;0.85;0.85;;;26.20;75.80;;;;;;5053830;28;20017;-76
2021/07/30 11:59:53;;;;;;;0.50;0.50;;;26.00;76.10;;;;;;5053727;28;20040;-79
2021/07/30 12:02:19;;;;;;;0.75;0.55;;;25.90;76.40;;;;;;5053840;28;20395;-80
2021/07/30 12:04:55;;;;;;;0.45;0.45;;;25.70;76.60;;;;;;5053885;28;20481;-79
2021/07/30 12:07:32;;;;;;;0.73;0.70;;;25.60;76.60;;;;;;5035449;28;20096;-80
2021/07/30 12:10:00;;;;;;;0.80;0.80;;;25.40;76.70;;;;;;5053663;28;20037;-79
2021/07/30 12:12:28;;;;;;;0.45;0.43;;;25.20;76.90;;;;;;5053574;28;20078;-80
2021/07/30 12:14:55;;;;;;;0.70;0.70;;;25.00;77.30;;;;;;5053527;28;20053;-80
2021/07/30 12:17:21;;;;;;;0.50;0.50;;;24.90;77.50;;;;;;5053533;28;20402;-80
2021/07/30 12:19:58;;;;;;;0.55;0.55;;;24.90;77.50;;;;;;5053553;28;20033;-80
2021/07/30 12:22:39;;;;;;;0.50;0.50;;;24.90;77.40;;;;;;5053041;28;20013;-80
2021/07/30 12:25:07;;;;;;;0.38;0.38;;;25.00;77.40;;;;;;5053370;28;20056;-79
2021/07/30 12:27:33;;;;;;;0.65;0.65;;;25.10;77.20;;;;;;5053368;28;20474;-79
2021/07/30 12:29:59;;;;;;;0.22;0.22;;;25.10;77.00;;;;;;5053462;28;20062;-79
2021/07/30 12:32:26;;;;;;;0.73;0.70;;;25.00;76.90;;;;;;5035294;28;20028;-79
2021/07/30 12:35:05;;;;;;;0.75;0.75;;;24.90;77.10;;;;;;5053499;28;20044;-77
2021/07/30 12:37:32;;;;;;;0.68;0.68;;;24.60;77.30;;;;;;5052844;28;20068;-79
2021/07/30 12:40:00;;;;;;;0.70;0.70;;;24.30;77.80;;;;;;5053113;28;20033;-79
2021/07/30 12:42:31;;;;;;;0.60;0.60;;;24.00;78.20;;;;;;5052921;28;20021;-77
2021/07/30 12:45:00;;;;;;;0.68;0.68;;;23.80;79.10;;;;;;5053264;28;20021;-79
2021/07/30 12:47:26;;;;;;;0.32;0.32;;;23.50;78.80;;;;;;5052929;28;20060;-79
2021/07/30 12:49:52;;;;;;;0.65;0.65;;;23.20;79.30;;;;;;5053287;28;20102;-79